Dobrodošli na spletni strani vremenske postaje Senovo. Vse informacije so informativnega značaja, saj vremenska postaja ni del državne mreže meteoroloških postaj. AKTUALNIH OBVESTIL NI.


Posebna pozornost v zvezi z vremenskimi dogajanji ni potrebna.    Posebna pozornost v zvezi z vremenskimi dogajanji ni potrebna.

Pogled proti Armezu več informacij Pogled proti Armezu


Bohor več informacij Bohor


Radar strel več informacij blitzortung!


Radar padavin več informacij rain snow radar


Obiščite še:

Template documentation
and downloads

And another site



Weather Underground, zgodovina - Tekstovno

Dnevni povzetek za Junij 24, 2017 Enote:  Angleško    Metrično   Obe
« Predhodni Dan
Naslednji Dan »
Dnevni Tedenski Mesečni Letni Po meri
  Višja: Nižja: Povprečje:
Temperatura: TemperatureC °F 17.9 °F 25.3 °F
Točka rosišča: DewpointC °F 16.3 °F 19.6 °F
Vlažnost: Humidity % 49 % 73 %
Hitrost vetra: WindSpeedKMH mph 0.0 mph 1.3 mph
Sunki vetra: WindSpeedGustKMH mph - -
Veter:- - South
Zračni tlak: PressurehPa in 1014.1 in -
Padavine: 0.0 in    
Historical Graphs
 
 
Tabelarni podarki za Junij 24, 2017
Čas Temperatura Točka rosišča Zračni tlak Veter Hitrost vetra Sunki vetra Vlažnost Intenziteta padavin (urna)
TemperatureC °F DewpointC °F PressurehPa in Calm     Humidity % HourlyPrecipMM in
00:01 20.7 °F 17.1 °F 1016.1 in WSW 0.3 mph 3.5 mph 80 % 0.0 in
00:07 20.6 °F 17.0 °F 1016.1 in Calm     80 % 0.0 in
00:12 20.5 °F 16.9 °F 1015.1 in Calm     80 % 0.0 in
00:17 20.4 °F 16.8 °F 1015.1 in Calm   2.6 mph 80 % 0.0 in
00:22 20.3 °F 16.7 °F 1015.1 in WNW 0.2 mph 2.6 mph 80 % 0.0 in
00:27 20.2 °F 16.8 °F 1015.1 in WNW 0.2 mph 1.4 mph 81 % 0.0 in
00:32 20.2 °F 16.8 °F 1015.1 in Calm     81 % 0.0 in
00:37 20.0 °F 16.6 °F 1015.1 in Calm     81 % 0.0 in
00:42 20.0 °F 16.6 °F 1015.1 in Calm     81 % 0.0 in
00:47 19.8 °F 16.6 °F 1015.1 in Calm     82 % 0.0 in
00:52 19.8 °F 16.6 °F 1015.1 in Calm     82 % 0.0 in
00:57 19.7 °F 16.6 °F 1015.1 in Calm     82 % 0.0 in
01:02 19.7 °F 16.6 °F 1015.1 in Calm     82 % 0.0 in
01:07 19.6 °F 16.4 °F 1015.1 in Calm     82 % 0.0 in
01:12 19.5 °F 16.6 °F 1016.1 in Calm     83 % 0.0 in
01:17 19.4 °F 16.4 °F 1016.1 in Calm     83 % 0.0 in
01:22 19.4 °F 16.4 °F 1016.1 in Calm     83 % 0.0 in
01:27 19.3 °F 16.3 °F 1016.1 in Calm     83 % 0.0 in
01:32 19.2 °F 16.4 °F 1016.1 in Calm     84 % 0.0 in
01:37 19.2 °F 16.4 °F 1016.1 in Calm     84 % 0.0 in
01:42 19.1 °F 16.3 °F 1016.1 in Calm     84 % 0.0 in
01:47 19.1 °F 16.5 °F 1016.1 in Calm     85 % 0.0 in
01:52 19.0 °F 16.4 °F 1016.1 in Calm     85 % 0.0 in
01:57 18.9 °F 16.5 °F 1016.1 in Calm     86 % 0.0 in
02:02 18.9 °F 16.7 °F 1016.1 in Calm     87 % 0.0 in
02:07 18.8 °F 16.4 °F 1016.1 in Calm     86 % 0.0 in
02:12 18.8 °F 16.6 °F 1016.1 in Calm     87 % 0.0 in
02:17 18.7 °F 16.5 °F 1016.1 in Calm     87 % 0.0 in
02:22 18.7 °F 16.5 °F 1016.1 in Calm     87 % 0.0 in
02:27 18.7 °F 16.7 °F 1016.1 in Calm     88 % 0.0 in
02:32 18.7 °F 16.7 °F 1016.1 in Calm     88 % 0.0 in
02:37 18.7 °F 16.7 °F 1016.1 in Calm     88 % 0.0 in
02:42 18.6 °F 16.6 °F 1016.1 in Calm     88 % 0.0 in
02:47 18.6 °F 16.6 °F 1016.1 in Calm     88 % 0.0 in
02:52 18.6 °F 16.8 °F 1016.1 in Calm     89 % 0.0 in
02:57 18.6 °F 16.8 °F 1016.1 in Calm     89 % 0.0 in
03:02 18.6 °F 16.8 °F 1016.1 in Calm     89 % 0.0 in
03:07 18.6 °F 16.8 °F 1016.1 in Calm     89 % 0.0 in
03:12 18.6 °F 16.8 °F 1016.1 in Calm     89 % 0.0 in
03:17 18.6 °F 16.8 °F 1016.1 in Calm     89 % 0.0 in
03:22 18.6 °F 16.9 °F 1016.1 in Calm     90 % 0.0 in
03:27 18.6 °F 16.9 °F 1016.1 in Calm     90 % 0.0 in
03:32 18.6 °F 16.9 °F 1016.1 in Calm     90 % 0.0 in
03:37 18.6 °F 16.9 °F 1016.1 in Calm     90 % 0.0 in
03:42 18.6 °F 16.9 °F 1016.1 in Calm     90 % 0.0 in
03:47 18.6 °F 16.9 °F 1016.1 in Calm     90 % 0.0 in
03:52 18.6 °F 16.9 °F 1016.1 in Calm     90 % 0.0 in
03:57 18.6 °F 16.9 °F 1016.1 in Calm     90 % 0.0 in
04:02 18.6 °F 16.9 °F 1016.1 in Calm     90 % 0.0 in
04:07 18.6 °F 16.9 °F 1016.1 in Calm     90 % 0.0 in
04:12 18.5 °F 16.8 °F 1016.1 in Calm     90 % 0.0 in
04:17 18.5 °F 16.8 °F 1016.1 in Calm     90 % 0.0 in
04:22 18.4 °F 16.9 °F 1016.1 in Calm     91 % 0.0 in
04:27 18.4 °F 16.9 °F 1016.1 in Calm     91 % 0.0 in
04:32 18.3 °F 16.8 °F 1016.1 in Calm     91 % 0.0 in
04:37 18.3 °F 16.8 °F 1016.1 in Calm     91 % 0.0 in
04:42 18.2 °F 16.7 °F 1016.1 in Calm     91 % 0.0 in
04:47 18.2 °F 16.7 °F 1016.1 in Calm     91 % 0.0 in
04:52 18.2 °F 16.7 °F 1016.1 in Calm     91 % 0.0 in
04:57 18.1 °F 16.6 °F 1016.8 in Calm     91 % 0.0 in
05:02 18.1 °F 16.6 °F 1016.8 in Calm     91 % 0.0 in
05:07 18.0 °F 16.5 °F 1016.8 in Calm     91 % 0.0 in
05:12 18.0 °F 16.5 °F 1016.8 in Calm     91 % 0.0 in
05:17 17.9 °F 16.6 °F 1016.8 in Calm     92 % 0.0 in
05:22 17.9 °F 16.6 °F 1016.8 in Calm     92 % 0.0 in
05:27 17.9 °F 16.6 °F 1016.8 in Calm     92 % 0.0 in
05:32 18.0 °F 16.7 °F 1016.8 in Calm     92 % 0.0 in
05:37 17.9 °F 16.6 °F 1016.8 in Calm     92 % 0.0 in
05:42 17.9 °F 16.8 °F 1016.8 in Calm     93 % 0.0 in
05:46 17.9 °F 16.8 °F 1016.8 in Calm     93 % 0.0 in
05:51 18.0 °F 16.7 °F 1016.8 in WSW 1.1 mph 4.3 mph 92 % 0.0 in
05:55 18.0 °F 16.7 °F 1016.8 in WSW 1.1 mph 4.3 mph 92 % 0.0 in
06:00 18.0 °F 16.8 °F 1016.8 in WSW 0.5 mph 3.2 mph 93 % 0.0 in
06:05 18.0 °F 16.8 °F 1016.8 in Calm     93 % 0.0 in
06:10 18.2 °F 17.1 °F 1016.8 in Calm     93 % 0.0 in
06:15 18.3 °F 17.2 °F 1016.8 in Calm     93 % 0.0 in
06:20 18.4 °F 17.2 °F 1016.8 in Calm     93 % 0.0 in
06:25 18.5 °F 17.3 °F 1016.8 in Calm     93 % 0.0 in
06:30 18.6 °F 17.4 °F 1016.8 in Calm     93 % 0.0 in
06:35 18.7 °F 17.6 °F 1016.8 in Calm     93 % 0.0 in
06:40 18.9 °F 17.7 °F 1016.8 in Calm     93 % 0.0 in
06:45 19.0 °F 17.8 °F 1016.8 in Calm     93 % 0.0 in
06:50 19.2 °F 18.1 °F 1016.8 in Calm     93 % 0.0 in
06:55 19.4 °F 18.2 °F 1018.2 in Calm     93 % 0.0 in
07:00 19.5 °F 18.3 °F 1018.2 in Calm     93 % 0.0 in
07:05 19.7 °F 18.6 °F 1018.2 in Calm     93 % 0.0 in
07:10 19.9 °F 18.7 °F 1016.8 in Calm     93 % 0.0 in
07:15 20.1 °F 18.9 °F 1016.8 in Calm     93 % 0.0 in
07:20 20.2 °F 19.1 °F 1016.8 in Calm     93 % 0.0 in
07:25 20.5 °F 19.2 °F 1018.2 in ESE 0.3 mph 2.6 mph 92 % 0.0 in
07:26 20.6 °F 19.3 °F 1018.2 in ESE 0.3 mph 4.3 mph 92 % 0.0 in
07:31 20.8 °F 19.4 °F 1018.2 in SE 0.2 mph 4.3 mph 92 % 0.0 in
07:36 21.0 °F 19.5 °F 1018.2 in SSE 0.8 mph 6.9 mph 91 % 0.0 in
07:41 21.4 °F 19.9 °F 1018.2 in SSW 3.7 mph 6.9 mph 91 % 0.0 in
07:46 21.6 °F 19.9 °F 1018.2 in SW 4.3 mph 6.9 mph 90 % 0.0 in
07:51 21.9 °F 20.2 °F 1018.2 in WSW 2.1 mph 5.8 mph 90 % 0.0 in
07:56 22.2 °F 20.1 °F 1018.2 in WSW 2.7 mph 6.1 mph 88 % 0.0 in
08:01 22.3 °F 20.2 °F 1018.2 in WSW 2.7 mph 6.1 mph 88 % 0.0 in
08:06 22.6 °F 20.3 °F 1018.2 in SW 1.1 mph 4.0 mph 87 % 0.0 in
08:11 22.8 °F 20.2 °F 1018.2 in SSW 1.6 mph 4.0 mph 85 % 0.0 in
08:16 23.0 °F 20.2 °F 1018.2 in SSW 1.4 mph 4.7 mph 84 % 0.0 in
08:21 23.2 °F 20.2 °F 1018.2 in SSW 1.3 mph 5.5 mph 83 % 0.0 in
08:26 23.4 °F 19.9 °F 1018.2 in WSW 1.9 mph 5.5 mph 81 % 0.0 in
08:31 23.8 °F 19.9 °F 1018.2 in SSW 1.4 mph 5.8 mph 79 % 0.0 in
08:36 24.0 °F 19.7 °F 1018.2 in SE 0.6 mph 5.8 mph 77 % 0.0 in
08:41 24.4 °F 19.9 °F 1018.8 in SW 1.6 mph 5.8 mph 76 % 0.0 in
08:46 24.8 °F 19.8 °F 1018.8 in SW 3.2 mph 6.1 mph 74 % 0.0 in
08:51 25.1 °F 19.9 °F 1018.8 in WSW 2.9 mph 6.1 mph 73 % 0.0 in
08:56 25.5 °F 20.1 °F 1016.8 in SW 1.4 mph 5.0 mph 72 % 0.0 in
09:01 25.8 °F 20.2 °F 1016.8 in East 0.6 mph 4.0 mph 71 % 0.0 in
09:06 26.3 °F 20.2 °F 1016.8 in East 1.9 mph 8.7 mph 69 % 0.0 in
09:11 26.6 °F 19.9 °F 1018.2 in East 4.2 mph 9.3 mph 67 % 0.0 in
09:16 26.9 °F 19.8 °F 1018.2 in ESE 5.1 mph 9.3 mph 65 % 0.0 in
09:21 27.1 °F 19.7 °F 1018.2 in East 4.2 mph 9.3 mph 64 % 0.0 in
09:27 27.3 °F 19.6 °F 1016.8 in East 4.0 mph 9.3 mph 63 % 0.0 in
09:31 27.5 °F 19.6 °F 1016.8 in East 4.2 mph 9.3 mph 62 % 0.0 in
09:37 27.7 °F 19.5 °F 1016.8 in ESE 3.9 mph 9.3 mph 61 % 0.0 in
09:42 27.9 °F 19.4 °F 1018.2 in ESE 3.4 mph 9.3 mph 60 % 0.0 in
09:47 28.0 °F 19.5 °F 1018.2 in ESE 4.2 mph 12.2 mph 60 % 0.0 in
09:52 28.1 °F 19.6 °F 1018.2 in ESE 5.8 mph 12.2 mph 60 % 0.0 in
09:57 28.1 °F 19.3 °F 1018.2 in ESE 5.5 mph 10.1 mph 59 % 0.0 in
10:02 28.0 °F 19.2 °F 1018.2 in SE 5.3 mph 11.9 mph 59 % 0.0 in
10:07 28.0 °F 19.5 °F 1018.2 in SE 6.1 mph 11.9 mph 60 % 0.0 in
10:12 28.1 °F 19.3 °F 1016.8 in SE 5.8 mph 10.5 mph 59 % 0.0 in
10:13 28.1 °F 19.3 °F 1016.8 in SE 5.6 mph 10.5 mph 59 % 0.0 in
10:18 28.1 °F 19.9 °F 1016.8 in SE 4.3 mph 10.5 mph 61 % 0.0 in
10:23 28.1 °F 19.6 °F 1016.8 in SE 3.7 mph 6.9 mph 60 % 0.0 in
10:28 28.0 °F 19.5 °F 1018.8 in SE 2.4 mph 6.1 mph 60 % 0.0 in
10:33 28.2 °F 19.9 °F 1018.8 in ESE 2.6 mph 7.6 mph 61 % 0.0 in
10:38 28.3 °F 19.8 °F 1018.8 in ESE 4.0 mph 7.6 mph 60 % 0.0 in
10:43 28.2 °F 19.7 °F 1018.2 in ESE 3.1 mph 6.1 mph 60 % 0.0 in
10:48 28.3 °F 19.8 °F 1018.2 in SE 1.4 mph 5.5 mph 60 % 0.0 in
10:53 28.4 °F 20.2 °F 1018.2 in SE 1.6 mph 4.7 mph 61 % 0.0 in
10:58 28.6 °F 20.3 °F 1018.2 in ESE 2.3 mph 4.7 mph 61 % 0.0 in
11:03 28.7 °F 20.4 °F 1018.2 in SE 2.1 mph 6.4 mph 61 % 0.0 in
11:08 28.9 °F 20.6 °F 1018.2 in SE 2.9 mph 6.4 mph 61 % 0.0 in
11:13 29.2 °F 20.6 °F 1018.2 in ESE 3.7 mph 10.1 mph 60 % 0.0 in
11:18 29.5 °F 20.9 °F 1018.2 in ESE 4.2 mph 10.1 mph 60 % 0.0 in
11:23 29.6 °F 21.0 °F 1018.2 in SSE 3.7 mph 6.9 mph 60 % 0.0 in
11:28 29.8 °F 21.2 °F 1016.8 in SSE 4.0 mph 9.3 mph 60 % 0.0 in
11:33 29.9 °F 21.3 °F 1016.8 in SSE 3.7 mph 9.3 mph 60 % 0.0 in
11:38 30.1 °F 21.2 °F 1016.8 in ESE 2.7 mph 6.9 mph 59 % 0.0 in
11:43 30.2 °F 21.0 °F 1016.8 in ESE 4.7 mph 13.0 mph 58 % 0.0 in
11:48 30.4 °F 21.2 °F 1016.8 in ESE 5.8 mph 13.0 mph 58 % 0.0 in
11:53 30.4 °F 20.9 °F 1016.8 in ESE 4.8 mph 9.0 mph 57 % 0.0 in
11:58 30.4 °F 20.3 °F 1016.8 in ESE 4.2 mph 7.6 mph 55 % 0.0 in
12:03 30.4 °F 20.6 °F 1016.8 in SE 4.3 mph 7.6 mph 56 % 0.0 in
12:08 30.5 °F 20.7 °F 1016.8 in South 3.2 mph 7.6 mph 56 % 0.0 in
12:14 30.6 °F 20.8 °F 1016.8 in SSE 2.3 mph 6.1 mph 56 % 0.0 in
12:19 30.8 °F 20.7 °F 1016.8 in ESE 3.7 mph 11.6 mph 55 % 0.0 in
12:24 31.0 °F 20.9 °F 1016.8 in ESE 6.1 mph 11.6 mph 55 % 0.0 in
12:29 31.2 °F 21.1 °F 1016.8 in SE 6.0 mph 10.8 mph 55 % 0.0 in
12:34 31.1 °F 20.7 °F 1016.8 in SSE 3.2 mph 8.7 mph 54 % 0.0 in
12:39 31.2 °F 20.8 °F 1016.8 in East 2.4 mph 8.7 mph 54 % 0.0 in
12:44 31.2 °F 20.8 °F 1016.8 in ENE 3.7 mph 8.7 mph 54 % 0.0 in
12:49 31.3 °F 20.6 °F 1016.8 in NE 4.3 mph 9.0 mph 53 % 0.0 in
12:54 31.2 °F 20.5 °F 1016.8 in NE 3.2 mph 9.0 mph 53 % 0.0 in
12:56 31.2 °F 20.5 °F 1016.8 in NE 3.1 mph 9.0 mph 53 % 0.0 in
13:01 31.5 °F 21.4 °F 1016.8 in SE 2.7 mph 9.7 mph 55 % 0.0 in
13:06 31.6 °F 20.8 °F 1016.8 in SSW 4.0 mph 9.7 mph 53 % 0.0 in
13:11 31.7 °F 20.9 °F 1016.8 in SW 3.4 mph 6.1 mph 53 % 0.0 in
13:16 31.6 °F 21.2 °F 1016.8 in East 2.6 mph 6.9 mph 54 % 0.0 in
13:21 31.9 °F 21.4 °F 1016.8 in SSE 3.4 mph 6.9 mph 54 % 0.0 in
13:26 32.2 °F 21.7 °F 1016.8 in South 4.5 mph 15.1 mph 54 % 0.0 in
13:31 32.3 °F 21.5 °F 1016.8 in SSE 4.7 mph 15.1 mph 53 % 0.0 in
13:36 32.2 °F 20.8 °F 1016.8 in ESE 3.7 mph 10.1 mph 51 % 0.0 in
13:41 32.4 °F 21.6 °F 1016.8 in ESE 3.7 mph 9.7 mph 53 % 0.0 in
13:46 32.5 °F 21.4 °F 1016.8 in ESE 2.6 mph 7.2 mph 52 % 0.0 in
13:51 32.4 °F 21.3 °F 1016.8 in East 1.6 mph 7.9 mph 52 % 0.0 in
13:56 32.7 °F 21.2 °F 1016.1 in SSW 4.0 mph 15.4 mph 51 % 0.0 in
14:01 32.7 °F 21.2 °F 1016.1 in South 6.0 mph 15.4 mph 51 % 0.0 in
14:06 32.7 °F 20.9 °F 1016.1 in South 5.8 mph 13.7 mph 50 % 0.0 in
14:11 32.5 °F 20.4 °F 1016.1 in SE 4.5 mph 10.5 mph 49 % 0.0 in
14:16 32.4 °F 20.7 °F 1016.1 in ESE 2.7 mph 9.7 mph 50 % 0.0 in
14:21 32.4 °F 20.7 °F 1016.1 in ESE 2.7 mph 9.7 mph 50 % 0.0 in
14:26 32.4 °F 20.7 °F 1016.1 in ESE 2.9 mph 9.0 mph 50 % 0.0 in
14:31 32.3 °F 20.6 °F 1016.1 in WSW 4.7 mph 10.5 mph 50 % 0.0 in
14:36 32.3 °F 20.9 °F 1016.1 in SW 4.8 mph 10.5 mph 51 % 0.0 in
14:41 32.3 °F 20.6 °F 1016.1 in SSW 2.9 mph 5.8 mph 50 % 0.0 in
14:44 31.9 °F 20.5 °F 1016.1 in SSE 4.7 mph 5.5 mph 51 % 0.0 in
14:45 31.7 °F 20.3 °F 1016.1 in SSE 4.5 mph 5.5 mph 51 % 0.0 in
14:46 31.7 °F 20.6 °F 1016.1 in SSE 4.7 mph 5.5 mph 52 % 0.0 in
14:47 31.6 °F 20.6 °F 1016.1 in SSE 4.2 mph 5.5 mph 52 % 0.0 in
14:48 31.6 °F 20.6 °F 1016.1 in South 3.5 mph 5.5 mph 52 % 0.0 in
14:49 31.5 °F 20.4 °F 1016.1 in South 3.1 mph 5.5 mph 52 % 0.0 in
14:50 31.5 °F 20.4 °F 1016.1 in South 2.9 mph 5.5 mph 52 % 0.0 in
14:51 31.5 °F 20.4 °F 1016.1 in South 2.6 mph 5.5 mph 52 % 0.0 in
14:52 31.5 °F 20.4 °F 1016.1 in South 2.4 mph 5.5 mph 52 % 0.0 in
14:53 31.4 °F 20.3 °F 1016.1 in South 2.4 mph 5.5 mph 52 % 0.0 in
14:54 31.4 °F 20.7 °F 1016.8 in South 2.1 mph 4.7 mph 53 % 0.0 in
14:55 31.4 °F 20.7 °F 1016.8 in SSW 1.8 mph 4.3 mph 53 % 0.0 in
14:56 31.3 °F 20.6 °F 1016.8 in South 1.4 mph 4.3 mph 53 % 0.0 in
14:57 31.3 °F 20.3 °F 1016.8 in South 1.3 mph 4.3 mph 52 % 0.0 in
14:58 31.3 °F 20.3 °F 1016.8 in South 1.4 mph 4.3 mph 52 % 0.0 in
14:59 31.2 °F 20.2 °F 1016.8 in South 1.6 mph 4.3 mph 52 % 0.0 in
15:00 31.2 °F 20.2 °F 1016.8 in South 1.6 mph 4.3 mph 52 % 0.0 in
15:01 31.1 °F 20.1 °F 1016.8 in South 1.6 mph 4.3 mph 52 % 0.0 in
15:02 31.1 °F 20.1 °F 1016.8 in South 1.4 mph 4.3 mph 52 % 0.0 in
15:03 31.0 °F 20.0 °F 1016.8 in SSE 1.3 mph 4.3 mph 52 % 0.0 in
15:04 31.0 °F 20.0 °F 1016.8 in SSE 1.4 mph 5.8 mph 52 % 0.0 in
15:05 31.0 °F 20.0 °F 1016.8 in SSE 1.9 mph 5.8 mph 52 % 0.0 in
15:06 30.9 °F 20.2 °F 1016.8 in SSE 2.1 mph 5.8 mph 53 % 0.0 in
15:07 30.9 °F 20.2 °F 1016.8 in SSE 2.3 mph 5.8 mph 53 % 0.0 in
15:08 30.9 °F 20.8 °F 1016.8 in SSE 2.1 mph 5.8 mph 55 % 0.0 in
15:09 30.9 °F 20.8 °F 1016.8 in SSE 1.9 mph 5.8 mph 55 % 0.0 in
15:10 30.9 °F 20.8 °F 1016.8 in SSE 1.8 mph 5.8 mph 55 % 0.0 in
15:11 30.8 °F 20.7 °F 1016.8 in SSE 2.1 mph 5.8 mph 55 % 0.0 in
15:12 30.8 °F 20.7 °F 1016.8 in South 2.3 mph 5.8 mph 55 % 0.0 in
15:13 30.8 °F 20.7 °F 1016.8 in South 2.3 mph 5.8 mph 55 % 0.0 in
15:14 30.8 °F 20.4 °F 1016.8 in SSW 1.9 mph 5.0 mph 54 % 0.0 in
15:15 30.7 °F 20.3 °F 1016.8 in SSW 1.3 mph 3.5 mph 54 % 0.0 in
15:25 30.7 °F 20.6 °F 1016.8 in SW 1.1 mph 3.5 mph 55 % 0.0 in
15:30 30.6 °F 20.8 °F 1016.1 in SSW 0.3 mph 2.6 mph 56 % 0.0 in
15:35 30.8 °F 21.0 °F 1016.1 in SSW 0.5 mph 4.3 mph 56 % 0.0 in
15:40 31.2 °F 21.4 °F 1016.1 in South 1.3 mph 5.5 mph 56 % 0.0 in
15:45 31.8 °F 21.7 °F 1016.1 in SSE 2.4 mph 7.9 mph 55 % 0.0 in
15:50 31.8 °F 20.7 °F 1016.1 in SE 2.9 mph 7.9 mph 52 % 0.0 in
15:55 31.9 °F 20.8 °F 1015.1 in ESE 3.4 mph 6.4 mph 52 % 0.0 in
16:00 31.9 °F 20.8 °F 1015.1 in East 3.9 mph 9.0 mph 52 % 0.0 in
16:05 31.8 °F 20.7 °F 1015.1 in East 3.4 mph 9.0 mph 52 % 0.0 in
16:10 31.6 °F 20.6 °F 1015.1 in SSE 1.9 mph 4.7 mph 52 % 0.0 in
16:15 31.3 °F 20.3 °F 1015.1 in SE 1.1 mph 4.7 mph 52 % 0.0 in
16:20 31.1 °F 20.4 °F 1015.1 in ESE 0.6 mph 4.0 mph 53 % 0.0 in
16:25 30.9 °F 21.1 °F 1015.1 in SSW 1.0 mph 4.3 mph 56 % 0.0 in
16:30 30.5 °F 21.8 °F 1015.1 in SW 0.8 mph 4.3 mph 60 % 0.0 in
16:35 30.0 °F 21.9 °F 1015.1 in SW 0.8 mph 3.5 mph 62 % 0.0 in
16:40 29.6 °F 21.6 °F 1015.1 in WSW 1.8 mph 5.0 mph 62 % 0.0 in
16:45 29.2 °F 21.2 °F 1015.1 in NW 1.9 mph 5.0 mph 62 % 0.0 in
16:50 28.9 °F 21.7 °F 1015.1 in North 0.6 mph 4.0 mph 65 % 0.0 in
16:52 28.9 °F 21.7 °F 1015.1 in NNE 0.2 mph 2.1 mph 65 % 0.0 in
16:57 28.6 °F 21.6 °F 1014.1 in Calm     66 % 0.0 in
17:02 28.3 °F 21.3 °F 1014.1 in Calm     66 % 0.0 in
17:07 28.0 °F 21.1 °F 1014.1 in Calm   2.6 mph 66 % 0.0 in
17:12 27.7 °F 21.3 °F 1014.1 in Calm   2.6 mph 68 % 0.0 in
17:17 27.6 °F 21.6 °F 1014.1 in Calm     70 % 0.0 in
17:22 27.4 °F 21.4 °F 1014.1 in Calm     70 % 0.0 in
17:27 27.3 °F 21.6 °F 1014.1 in Calm     71 % 0.0 in
17:32 27.2 °F 21.3 °F 1014.1 in West 0.6 mph 3.2 mph 70 % 0.0 in
17:37 27.1 °F 21.4 °F 1014.1 in West 0.3 mph 3.2 mph 71 % 0.0 in
17:42 27.0 °F 21.5 °F 1015.1 in Calm     72 % 0.0 in
17:47 27.0 °F 21.7 °F 1015.1 in Calm     73 % 0.0 in
17:52 27.2 °F 21.9 °F 1015.1 in Calm     73 % 0.0 in
17:57 27.4 °F 22.1 °F 1015.1 in Calm     73 % 0.0 in
18:02 27.7 °F 22.4 °F 1015.1 in Calm     73 % 0.0 in
18:07 27.9 °F 22.4 °F 1015.1 in Calm     72 % 0.0 in
18:12 28.3 °F 22.6 °F 1015.1 in Calm     71 % 0.0 in
18:17 28.6 °F 22.8 °F 1015.1 in Calm     71 % 0.0 in
18:22 28.9 °F 23.1 °F 1015.1 in Calm     71 % 0.0 in
18:27 29.1 °F 23.1 °F 1014.1 in ESE 0.2 mph 3.5 mph 70 % 0.0 in
18:31 29.2 °F 22.9 °F 1014.1 in SE 0.3 mph 4.3 mph 69 % 0.0 in
18:37 29.5 °F 23.2 °F 1014.1 in SE 1.1 mph 4.3 mph 69 % 0.0 in
18:42 29.6 °F 23.3 °F 1014.1 in SSE 1.1 mph 4.7 mph 69 % 0.0 in
18:47 29.6 °F 22.8 °F 1014.1 in South 0.3 mph 4.7 mph 67 % 0.0 in
18:52 29.6 °F 23.1 °F 1014.1 in South 0.3 mph 2.6 mph 68 % 0.0 in
18:57 29.5 °F 23.2 °F 1014.1 in WSW 1.3 mph 4.3 mph 69 % 0.0 in
19:02 29.4 °F 23.1 °F 1014.1 in West 1.4 mph 4.3 mph 69 % 0.0 in
19:07 29.3 °F 23.3 °F 1014.1 in West 0.3 mph 3.5 mph 70 % 0.0 in
19:12 29.2 °F 22.9 °F 1014.1 in Calm   1.4 mph 69 % 0.0 in
19:17 29.0 °F 22.9 °F 1014.1 in SW 0.2 mph 2.1 mph 70 % 0.0 in
19:22 28.9 °F 23.1 °F 1014.1 in SW 0.2 mph 2.1 mph 71 % 0.0 in
19:27 28.7 °F 22.9 °F 1014.1 in Calm   2.1 mph 71 % 0.0 in
19:32 28.6 °F 22.8 °F 1014.1 in Calm   1.8 mph 71 % 0.0 in
19:37 28.4 °F 22.6 °F 1014.1 in Calm     71 % 0.0 in
19:42 28.2 °F 22.4 °F 1014.1 in Calm   2.6 mph 71 % 0.0 in
19:47 28.0 °F 22.2 °F 1014.1 in NW 0.8 mph 4.0 mph 71 % 0.0 in
19:52 27.8 °F 22.5 °F 1014.1 in NW 1.3 mph 4.0 mph 73 % 0.0 in
19:57 27.5 °F 22.4 °F 1014.1 in NNW 0.5 mph 3.2 mph 74 % 0.0 in
20:02 27.3 °F 22.3 °F 1014.1 in NNW 0.3 mph 4.7 mph 74 % 0.0 in
20:07 27.1 °F 22.3 °F 1014.1 in NNW 0.6 mph 4.7 mph 75 % 0.0 in
20:12 26.8 °F 22.0 °F 1014.1 in North 0.8 mph 4.0 mph 75 % 0.0 in
20:17 26.7 °F 21.9 °F 1014.1 in NW 1.1 mph 4.0 mph 75 % 0.0 in
20:22 26.4 °F 21.8 °F 1014.1 in West 1.3 mph 3.5 mph 76 % 0.0 in
20:27 26.1 °F 21.8 °F 1014.1 in NNW 1.0 mph 3.5 mph 77 % 0.0 in
20:32 25.9 °F 21.8 °F 1014.1 in NNE 1.0 mph 4.0 mph 78 % 0.0 in
20:37 25.7 °F 21.6 °F 1014.1 in NNW 1.0 mph 4.0 mph 78 % 0.0 in
20:42 25.5 °F 21.4 °F 1014.1 in NNW 0.5 mph 3.5 mph 78 % 0.0 in
20:47 25.3 °F 21.4 °F 1014.1 in Calm     79 % 0.0 in
20:52 25.1 °F 21.2 °F 1014.1 in Calm     79 % 0.0 in
20:57 24.9 °F 21.2 °F 1014.1 in Calm     80 % 0.0 in
21:02 24.7 °F 21.0 °F 1014.1 in Calm     80 % 0.0 in
21:07 24.5 °F 20.8 °F 1014.1 in Calm     80 % 0.0 in
21:12 24.4 °F 20.7 °F 1014.1 in Calm     80 % 0.0 in
21:17 24.2 °F 20.6 °F 1014.1 in Calm     80 % 0.0 in
21:22 24.1 °F 20.6 °F 1014.1 in Calm     81 % 0.0 in
21:27 23.9 °F 20.6 °F 1014.1 in Calm     82 % 0.0 in
21:32 23.8 °F 20.7 °F 1014.1 in Calm     83 % 0.0 in
21:37 23.6 °F 20.6 °F 1014.1 in Calm     83 % 0.0 in
21:42 23.5 °F 20.4 °F 1014.1 in Calm     83 % 0.0 in
21:47 23.4 °F 20.6 °F 1014.1 in Calm     84 % 0.0 in
21:52 23.3 °F 20.4 °F 1014.1 in Calm     84 % 0.0 in
21:57 23.2 °F 20.6 °F 1014.1 in Calm     85 % 0.0 in
22:02 23.1 °F 20.4 °F 1014.1 in Calm     85 % 0.0 in
22:07 23.1 °F 20.4 °F 1014.1 in Calm     85 % 0.0 in
22:13 23.0 °F 20.6 °F 1015.1 in Calm     86 % 0.0 in
22:18 22.9 °F 20.4 °F 1015.1 in Calm     86 % 0.0 in
22:23 22.8 °F 20.3 °F 1015.1 in Calm     86 % 0.0 in
22:28 22.7 °F 20.4 °F 1015.1 in Calm     87 % 0.0 in
22:33 22.6 °F 20.3 °F 1015.1 in Calm     87 % 0.0 in
22:38 22.5 °F 20.2 °F 1015.1 in Calm     87 % 0.0 in
22:43 22.4 °F 20.1 °F 1015.1 in Calm     87 % 0.0 in
22:48 22.4 °F 20.1 °F 1015.1 in Calm     87 % 0.0 in
22:53 22.3 °F 20.1 °F 1015.1 in Calm     87 % 0.0 in
22:58 22.2 °F 20.1 °F 1015.1 in Calm     88 % 0.0 in
23:03 22.1 °F 20.0 °F 1015.1 in Calm     88 % 0.0 in
23:08 22.0 °F 19.9 °F 1015.1 in Calm     88 % 0.0 in
23:13 21.9 °F 20.0 °F 1016.1 in Calm     89 % 0.0 in
23:18 21.9 °F 20.0 °F 1016.1 in Calm     89 % 0.0 in
23:23 21.8 °F 19.9 °F 1016.1 in Calm     89 % 0.0 in
23:25 21.8 °F 19.9 °F 1016.1 in Calm     89 % 0.0 in
23:30 21.7 °F 19.8 °F 1016.1 in Calm     89 % 0.0 in
23:35 21.6 °F 19.7 °F 1016.1 in Calm     89 % 0.0 in
23:40 21.6 °F 19.9 °F 1015.1 in Calm     90 % 0.0 in
23:45 21.6 °F 19.9 °F 1015.1 in Calm     90 % 0.0 in
23:50 21.6 °F 19.9 °F 1015.1 in Calm     90 % 0.0 in
23:55 21.6 °F 19.9 °F 1015.1 in Calm     90 % 0.0 in
Vremenska postaja Senovo
Podatki zbrani iz Weather Underground - 3 mb

Script developed by  Jim McMurry - jmcmurry@mwt.net Adapted for the template by  Wim van der Kuil - Leuven-Template.eu

Vremenski podatki so objavljeni na:

European Weather Network

WeatherCloud

Weather Underground

AWEKAS

HAMweather, WeatherForYou, PWS Weather

MapView

Geostik

Slovenia weather network

Oprema, ki se uporablja:

Vremenski program
Cumulus

Vremenski server
Asus

Cumulus

Asus